createdAt,value
2018-12-18T00:00:29.260Z,48.51
2018-12-18T00:02:55.261Z,48.64
2018-12-18T00:05:21.224Z,48.63
2018-12-18T00:07:47.185Z,48.50
2018-12-18T00:10:13.323Z,49.34
2018-12-18T00:12:39.364Z,48.89
2018-12-18T00:15:05.456Z,49.47
2018-12-18T00:17:31.431Z,49.28
2018-12-18T00:19:57.385Z,49.29
2018-12-18T00:22:23.481Z,49.84
2018-12-18T00:24:49.445Z,50.65
2018-12-18T00:27:15.430Z,49.99
2018-12-18T00:29:41.384Z,50.21
2018-12-18T00:32:07.334Z,50.32
2018-12-18T00:34:33.309Z,49.46
2018-12-18T00:36:59.265Z,49.53
2018-12-18T00:39:25.212Z,48.82
2018-12-18T00:41:51.158Z,49.01
2018-12-18T00:44:17.210Z,48.96
2018-12-18T00:46:43.174Z,48.61
2018-12-18T00:49:09.131Z,48.67
2018-12-18T00:51:35.111Z,49.57
2018-12-18T00:54:01.085Z,49.01
2018-12-18T00:56:27.056Z,48.91
2018-12-18T00:58:53.068Z,49.43
2018-12-18T01:01:19.028Z,48.71
2018-12-18T01:03:44.993Z,49.64
2018-12-18T01:06:10.984Z,48.96
2018-12-18T01:08:36.935Z,49.46
2018-12-18T01:11:02.885Z,49.52
2018-12-18T01:13:28.863Z,49.62
2018-12-18T01:15:54.827Z,49.38
2018-12-18T01:18:20.790Z,49.46
2018-12-18T01:20:46.775Z,49.60
2018-12-18T01:23:12.724Z,49.39
2018-12-18T01:25:38.699Z,49.71
2018-12-18T01:28:04.649Z,49.06
2018-12-18T01:30:30.686Z,49.35
2018-12-18T01:32:56.655Z,49.26
2018-12-18T01:35:22.622Z,49.65
2018-12-18T01:37:48.598Z,49.10
2018-12-18T01:40:14.553Z,49.64
2018-12-18T01:42:40.509Z,49.03
2018-12-18T01:45:06.481Z,49.33
2018-12-18T01:47:32.437Z,49.35
2018-12-18T01:49:58.949Z,49.28
2018-12-18T01:52:24.915Z,48.92
2018-12-18T01:54:50.874Z,49.57
2018-12-18T01:57:16.950Z,49.32
2018-12-18T01:59:42.952Z,49.81
2018-12-18T02:02:08.960Z,49.27
2018-12-18T02:04:34.957Z,49.81
2018-12-18T02:07:00.922Z,49.53
2018-12-18T02:09:26.899Z,49.58
2018-12-18T02:11:52.858Z,49.96
2018-12-18T02:14:18.858Z,49.61
2018-12-18T02:16:44.826Z,49.39
2018-12-18T02:19:10.778Z,49.52
2018-12-18T02:21:36.750Z,48.59
2018-12-18T02:24:02.706Z,49.27
2018-12-18T02:26:28.916Z,48.75
2018-12-18T02:28:54.896Z,49.13
2018-12-18T02:31:20.863Z,48.81
2018-12-18T02:33:46.914Z,48.94
2018-12-18T02:36:12.887Z,48.43
2018-12-18T02:38:38.842Z,48.80
2018-12-18T02:41:04.903Z,48.20
2018-12-18T02:43:30.863Z,48.53
2018-12-18T02:45:56.843Z,48.95
2018-12-18T02:48:22.895Z,48.59
2018-12-18T02:50:48.994Z,49.24
2018-12-18T02:53:14.970Z,49.02
2018-12-18T02:55:40.921Z,49.30
2018-12-18T02:58:06.877Z,49.31
2018-12-18T03:00:32.862Z,49.30
2018-12-18T03:02:58.823Z,49.71
2018-12-18T03:05:24.900Z,49.77
2018-12-18T03:07:50.954Z,49.33
2018-12-18T03:10:17.090Z,49.54
2018-12-18T03:12:43.070Z,49.25
2018-12-18T03:15:09.063Z,49.57
2018-12-18T03:17:35.148Z,49.55
2018-12-18T03:20:01.099Z,48.92
2018-12-18T03:22:27.128Z,48.74
2018-12-18T03:24:53.133Z,48.87
2018-12-18T03:27:19.195Z,49.18
2018-12-18T03:29:45.146Z,49.29
2018-12-18T03:32:11.160Z,49.22
2018-12-18T03:34:37.155Z,48.90
2018-12-18T03:37:03.107Z,49.52
2018-12-18T03:39:29.066Z,49.22
2018-12-18T03:41:55.064Z,49.59
2018-12-18T03:44:21.047Z,49.29
2018-12-18T03:46:47.083Z,49.26
2018-12-18T03:49:13.045Z,48.92
2018-12-18T03:51:39.030Z,49.08
2018-12-18T03:54:05.073Z,49.49
2018-12-18T03:56:31.222Z,49.18
2018-12-18T03:58:57.198Z,48.82
2018-12-18T04:01:23.241Z,49.46
2018-12-18T04:03:49.259Z,49.51
2018-12-18T04:06:15.255Z,49.41
2018-12-18T04:08:41.238Z,49.10
2018-12-18T04:11:07.195Z,49.30
2018-12-18T04:13:33.310Z,49.35
2018-12-18T04:15:59.272Z,49.01
2018-12-18T04:18:25.245Z,49.98
2018-12-18T04:20:51.195Z,49.98
2018-12-18T04:23:17.182Z,49.68
2018-12-18T04:25:43.134Z,49.08
2018-12-18T04:28:09.279Z,49.43
2018-12-18T04:30:35.242Z,49.58
2018-12-18T04:33:01.209Z,50.04
2018-12-18T04:35:27.197Z,49.35
2018-12-18T04:37:53.327Z,49.36
2018-12-18T04:40:19.274Z,49.39
2018-12-18T04:42:45.317Z,49.82
2018-12-18T04:45:11.272Z,49.80
2018-12-18T04:47:37.215Z,50.01
2018-12-18T04:50:03.203Z,49.62
2018-12-18T04:52:29.183Z,50.18
2018-12-18T04:54:55.159Z,49.92
2018-12-18T04:57:21.177Z,49.84
2018-12-18T04:59:47.228Z,50.02
2018-12-18T05:02:13.271Z,50.08
2018-12-18T05:04:39.269Z,49.72
2018-12-18T05:07:05.262Z,49.45
2018-12-18T05:09:31.204Z,49.84
2018-12-18T05:11:57.208Z,49.07
2018-12-18T05:14:23.198Z,49.77
2018-12-18T05:16:49.235Z,49.74
2018-12-18T05:19:15.193Z,49.17
2018-12-18T05:21:41.157Z,49.06
2018-12-18T05:24:07.332Z,49.77
2018-12-18T05:26:33.467Z,50.01
2018-12-18T05:28:59.452Z,49.72
2018-12-18T05:31:25.436Z,50.06
2018-12-18T05:33:51.409Z,50.00
2018-12-18T05:36:17.470Z,49.72
2018-12-18T05:38:43.433Z,49.93
2018-12-18T05:41:09.376Z,49.60
2018-12-18T05:43:35.371Z,49.85
2018-12-18T05:46:01.327Z,50.14
2018-12-18T05:48:27.308Z,49.77
2018-12-18T05:50:53.276Z,49.28
2018-12-18T05:53:19.217Z,49.89
2018-12-18T05:55:45.202Z,49.64
2018-12-18T05:58:11.189Z,49.72
2018-12-18T06:00:37.166Z,49.64
2018-12-18T06:03:03.117Z,49.39
2018-12-18T06:05:29.113Z,50.16
2018-12-18T06:07:55.079Z,49.73
2018-12-18T06:10:21.031Z,49.62
2018-12-18T06:12:47.048Z,49.88
2018-12-18T06:15:13.166Z,49.85
2018-12-18T06:17:39.115Z,49.47
2018-12-18T06:20:05.070Z,49.31
2018-12-18T06:22:31.042Z,49.98
2018-12-18T06:24:57.018Z,49.58
2018-12-18T06:27:23.004Z,50.02
2018-12-18T06:29:48.985Z,50.01
2018-12-18T06:32:14.945Z,49.89
2018-12-18T06:34:40.900Z,49.52
2018-12-18T06:37:06.958Z,49.90
2018-12-18T06:39:32.938Z,50.08
2018-12-18T06:41:58.909Z,50.16
2018-12-18T06:44:25.136Z,49.50
2018-12-18T06:46:51.081Z,49.86
2018-12-18T06:49:17.024Z,50.12
2018-12-18T06:51:43.037Z,50.04
2018-12-18T06:54:09.032Z,50.01
2018-12-18T06:56:34.997Z,49.79
2018-12-18T06:59:00.954Z,49.89
2018-12-18T07:01:26.992Z,49.53
2018-12-18T07:03:52.941Z,49.85
2018-12-18T07:06:18.915Z,48.84
2018-12-18T07:08:44.875Z,49.63
2018-12-18T07:11:10.865Z,49.54
2018-12-18T07:13:36.838Z,50.41
2018-12-18T07:16:02.857Z,49.95
2018-12-18T07:18:28.840Z,49.70
2018-12-18T07:20:54.844Z,49.06
2018-12-18T07:23:20.855Z,50.02
2018-12-18T07:25:46.871Z,49.51
2018-12-18T07:28:12.850Z,49.21
2018-12-18T07:30:38.942Z,49.51
2018-12-18T07:33:05.201Z,49.22
2018-12-18T07:35:31.151Z,49.11
2018-12-18T07:37:57.122Z,49.39
2018-12-18T07:40:23.078Z,48.77
2018-12-18T07:42:49.143Z,49.61
2018-12-18T07:45:15.133Z,48.92
2018-12-18T07:47:41.095Z,49.48
2018-12-18T07:50:07.291Z,49.76
2018-12-18T07:52:33.309Z,49.24
2018-12-18T07:54:59.324Z,49.25
2018-12-18T07:57:25.298Z,49.12
2018-12-18T07:59:51.285Z,49.37
2018-12-18T08:02:17.231Z,49.36
2018-12-18T08:04:43.193Z,49.52
2018-12-18T08:07:09.254Z,49.57
2018-12-18T08:09:35.192Z,49.44
2018-12-18T08:12:01.153Z,49.34
2018-12-18T08:14:27.141Z,49.53
2018-12-18T08:16:53.157Z,49.20
2018-12-18T08:19:19.122Z,49.82
2018-12-18T08:21:45.087Z,48.96
2018-12-18T08:24:11.040Z,49.89
2018-12-18T08:26:37.043Z,49.51
2018-12-18T08:29:02.989Z,48.81
2018-12-18T08:31:29.010Z,49.58
2018-12-18T08:33:54.960Z,49.42
2018-12-18T08:36:20.930Z,49.31
2018-12-18T08:38:46.901Z,50.06
2018-12-18T08:41:12.937Z,50.03
2018-12-18T08:43:39.058Z,49.43
2018-12-18T08:46:10.214Z,49.89
2018-12-18T08:48:32.972Z,49.74
2018-12-18T08:50:58.978Z,50.14
2018-12-18T08:53:24.950Z,49.88
2018-12-18T08:55:50.942Z,49.97
2018-12-18T08:58:16.896Z,49.57
2018-12-18T09:00:42.850Z,49.99
2018-12-18T09:03:08.841Z,49.67
2018-12-18T09:05:34.798Z,49.35
2018-12-18T09:08:00.817Z,50.33
2018-12-18T09:10:26.773Z,49.36
2018-12-18T09:12:52.754Z,50.23
2018-12-18T09:15:18.758Z,49.60
2018-12-18T09:17:44.796Z,48.96
2018-12-18T09:20:10.746Z,48.50
2018-12-18T09:22:36.719Z,48.32
2018-12-18T09:25:02.681Z,48.91
2018-12-18T09:27:28.826Z,49.03
2018-12-18T09:29:55.169Z,49.09
2018-12-18T09:32:21.181Z,49.46
2018-12-18T09:34:47.142Z,49.98
2018-12-18T09:37:13.259Z,49.03
2018-12-18T09:39:39.247Z,49.37
2018-12-18T09:42:05.198Z,50.04
2018-12-18T09:44:31.270Z,49.81
2018-12-18T09:46:57.229Z,49.29
2018-12-18T09:49:23.190Z,49.10
2018-12-18T09:51:49.140Z,49.10
2018-12-18T09:54:15.089Z,49.81
2018-12-18T09:56:41.053Z,49.65
2018-12-18T09:59:07.188Z,48.91
2018-12-18T10:01:33.147Z,48.86
2018-12-18T10:03:59.128Z,49.72
2018-12-18T10:06:25.111Z,48.89
2018-12-18T10:08:51.150Z,49.45
2018-12-18T10:11:17.087Z,49.46
2018-12-18T10:13:43.067Z,49.16
2018-12-18T10:16:09.128Z,49.21
2018-12-18T10:18:35.088Z,49.92
2018-12-18T10:21:01.152Z,49.49
2018-12-18T10:23:27.299Z,49.40
2018-12-18T10:25:53.360Z,49.71
2018-12-18T10:28:19.629Z,49.76
2018-12-18T10:30:45.669Z,49.45
2018-12-18T10:33:11.702Z,49.81
2018-12-18T10:35:37.659Z,49.07
2018-12-18T10:38:03.607Z,49.13
2018-12-18T10:40:29.579Z,49.40
2018-12-18T10:50:30.233Z,48.66
2018-12-18T10:52:56.200Z,49.20
2018-12-18T10:55:22.190Z,48.36
2018-12-18T10:57:48.149Z,48.68
2018-12-18T11:00:14.157Z,48.37
2018-12-18T11:02:40.116Z,49.01
2018-12-18T11:05:06.075Z,49.57
2018-12-18T11:07:32.031Z,48.54
2018-12-18T11:09:58.032Z,48.65
2018-12-18T11:12:24.001Z,49.29
2018-12-18T11:14:49.989Z,49.40
2018-12-18T11:17:15.943Z,48.58
2018-12-18T11:19:42.080Z,49.31
2018-12-18T11:22:08.073Z,49.41
2018-12-18T11:24:34.037Z,48.56
2018-12-18T11:27:00.027Z,49.00
2018-12-18T11:29:26.065Z,48.75
2018-12-18T11:31:52.086Z,48.49
2018-12-18T11:34:18.050Z,49.10
2018-12-18T11:36:44.017Z,48.91
2018-12-18T11:39:09.979Z,49.11
2018-12-18T11:41:35.930Z,48.32
2018-12-18T11:44:01.917Z,48.61
2018-12-18T11:46:27.883Z,48.99
2018-12-18T11:48:53.854Z,48.37
2018-12-18T11:51:19.814Z,48.30
2018-12-18T11:53:45.788Z,48.29
2018-12-18T11:56:11.740Z,48.59
2018-12-18T11:58:37.712Z,48.60
2018-12-18T12:01:03.691Z,48.28
2018-12-18T12:03:29.647Z,48.98
2018-12-18T12:05:55.604Z,48.65
2018-12-18T12:08:21.676Z,48.20
2018-12-18T12:10:47.658Z,48.47
2018-12-18T12:13:13.785Z,48.57
2018-12-18T12:15:39.871Z,48.27
2018-12-18T12:18:05.834Z,47.94
2018-12-18T12:20:31.805Z,48.83
2018-12-18T12:22:57.785Z,48.49
2018-12-18T12:25:23.732Z,48.72
2018-12-18T12:27:49.804Z,48.08
2018-12-18T12:30:15.903Z,48.96
2018-12-18T12:32:41.897Z,49.04
2018-12-18T12:35:07.855Z,48.15
2018-12-18T12:37:33.841Z,48.87
2018-12-18T12:39:59.869Z,48.32
2018-12-18T12:42:25.816Z,49.07
2018-12-18T12:44:51.821Z,48.87
2018-12-18T12:47:17.819Z,48.80
2018-12-18T12:49:43.802Z,49.26
2018-12-18T12:52:09.809Z,48.68
2018-12-18T12:54:35.815Z,48.73
2018-12-18T12:57:01.989Z,48.86
2018-12-18T12:59:27.962Z,49.13
2018-12-18T13:01:53.942Z,48.75
2018-12-18T13:04:19.914Z,49.52
2018-12-18T13:06:45.903Z,49.43
2018-12-18T13:09:11.862Z,49.36
2018-12-18T13:11:37.813Z,48.76
2018-12-18T13:14:03.791Z,49.27
2018-12-18T13:16:29.740Z,49.03
2018-12-18T13:18:55.714Z,49.41
2018-12-18T13:21:21.677Z,49.44
2018-12-18T13:23:47.639Z,49.00
2018-12-18T13:26:13.635Z,48.60
2018-12-18T13:28:39.631Z,49.07
2018-12-18T13:31:05.569Z,48.92
2018-12-18T13:33:31.536Z,49.90
2018-12-18T13:35:57.499Z,49.75
2018-12-18T13:38:23.484Z,49.81
2018-12-18T13:40:49.790Z,49.25
2018-12-18T13:43:15.753Z,49.02
2018-12-18T13:45:41.715Z,48.86
2018-12-18T13:48:07.678Z,49.18
2018-12-18T13:50:33.633Z,49.57
2018-12-18T13:52:59.614Z,49.34
2018-12-18T13:55:25.577Z,48.70
2018-12-18T13:57:51.557Z,49.38
2018-12-18T14:00:17.541Z,49.42
2018-12-18T14:02:43.482Z,49.05
2018-12-18T14:05:09.517Z,48.75
2018-12-18T14:07:35.482Z,49.37
2018-12-18T14:10:01.459Z,49.09
2018-12-18T14:12:27.450Z,48.81
2018-12-18T14:14:53.428Z,49.38
2018-12-18T14:17:19.394Z,49.55
2018-12-18T14:19:45.363Z,49.22
2018-12-18T14:22:11.434Z,48.65
2018-12-18T14:24:37.512Z,49.19
2018-12-18T14:27:04.234Z,49.41
2018-12-18T14:29:30.191Z,49.25
2018-12-18T14:31:56.243Z,50.02
2018-12-18T14:34:22.337Z,49.00
2018-12-18T14:36:48.304Z,49.27
2018-12-18T14:39:14.262Z,48.83
2018-12-18T14:41:40.304Z,48.65
2018-12-18T14:44:06.285Z,49.23
2018-12-18T14:46:32.248Z,49.18
2018-12-18T14:48:58.219Z,48.90
2018-12-18T14:51:24.215Z,47.39
2018-12-18T14:53:50.193Z,47.71
2018-12-18T14:56:16.254Z,48.21
2018-12-18T14:58:43.338Z,48.52
2018-12-18T15:01:09.318Z,48.40
2018-12-18T15:03:35.284Z,48.70
2018-12-18T15:06:01.277Z,48.43
2018-12-18T15:08:27.227Z,48.21
2018-12-18T15:10:53.224Z,49.22
2018-12-18T15:13:19.193Z,49.05
2018-12-18T15:15:45.296Z,49.63
2018-12-18T15:18:11.247Z,49.19
2018-12-18T15:20:37.235Z,49.79
2018-12-18T15:23:03.227Z,48.62
2018-12-18T15:25:29.193Z,49.16
2018-12-18T15:27:55.170Z,48.78
2018-12-18T15:30:25.910Z,48.53
2018-12-18T15:32:49.231Z,48.97
2018-12-18T15:35:15.293Z,48.72
2018-12-18T15:37:41.301Z,48.83
2018-12-18T15:40:07.336Z,48.76
2018-12-18T15:42:33.410Z,48.59
2018-12-18T15:44:59.366Z,48.91
2018-12-18T15:47:25.347Z,48.80
2018-12-18T15:49:51.491Z,49.00
2018-12-18T15:52:17.449Z,47.96
2018-12-18T15:54:43.402Z,47.49
2018-12-18T15:57:09.365Z,46.69
2018-12-18T15:59:35.466Z,47.67
2018-12-18T16:02:01.469Z,47.40
2018-12-18T16:04:27.511Z,48.00
2018-12-18T16:06:53.556Z,48.62
2018-12-18T16:09:19.570Z,48.58
2018-12-18T16:11:45.593Z,48.46
2018-12-18T16:14:11.588Z,49.30
2018-12-18T16:16:37.534Z,48.38
2018-12-18T16:19:03.498Z,48.70
2018-12-18T16:21:29.462Z,48.43
2018-12-18T16:23:55.420Z,48.58
2018-12-18T16:26:21.384Z,48.72
2018-12-18T16:28:47.424Z,48.46
2018-12-18T16:31:13.387Z,48.68
2018-12-18T16:33:39.335Z,48.43
2018-12-18T16:36:05.311Z,48.83
2018-12-18T16:38:31.281Z,49.14
2018-12-18T16:40:57.337Z,49.54
2018-12-18T16:43:23.316Z,49.72
2018-12-18T16:45:49.280Z,50.22
2018-12-18T16:48:15.445Z,49.22
2018-12-18T16:50:41.409Z,49.39
2018-12-18T16:53:07.429Z,49.42
2018-12-18T16:55:33.532Z,49.15
2018-12-18T16:57:59.510Z,47.97
2018-12-18T17:00:25.485Z,48.42
2018-12-18T17:02:51.490Z,47.87
2018-12-18T17:05:17.462Z,48.85
2018-12-18T17:07:43.400Z,48.72
2018-12-18T17:10:09.422Z,48.36
2018-12-18T17:12:35.526Z,48.97
2018-12-18T17:15:01.510Z,49.03
2018-12-18T17:17:27.498Z,48.58
2018-12-18T17:19:53.544Z,48.58
2018-12-18T17:22:19.544Z,48.04
2018-12-18T17:24:45.623Z,48.12
2018-12-18T17:27:11.624Z,48.11
2018-12-18T17:29:37.620Z,48.76
2018-12-18T17:32:03.606Z,48.57
2018-12-18T17:34:29.609Z,48.29
2018-12-18T17:36:55.609Z,48.94
2018-12-18T17:39:21.776Z,48.82
2018-12-18T17:41:47.724Z,49.14
2018-12-18T17:44:13.724Z,49.00
2018-12-18T17:46:39.683Z,48.78
2018-12-18T17:49:05.658Z,48.56
2018-12-18T17:51:31.649Z,49.00
2018-12-18T17:53:57.623Z,49.35
2018-12-18T17:56:23.608Z,49.73
2018-12-18T17:58:49.754Z,49.00
2018-12-18T18:01:15.778Z,49.24
2018-12-18T18:03:41.738Z,49.67
2018-12-18T18:06:07.758Z,49.28
2018-12-18T18:08:33.781Z,49.64
2018-12-18T18:10:59.796Z,49.48
2018-12-18T18:13:25.833Z,49.60
2018-12-18T18:15:51.831Z,48.87
2018-12-18T18:18:17.948Z,49.05
2018-12-18T18:20:43.930Z,49.22
2018-12-18T18:23:09.956Z,49.01
2018-12-18T18:25:35.982Z,49.31
2018-12-18T18:28:01.979Z,49.42
2018-12-18T18:30:27.940Z,49.84
2018-12-18T18:32:53.971Z,49.80
2018-12-18T18:35:19.993Z,49.96
2018-12-18T18:37:49.573Z,49.56
2018-12-18T18:40:14.243Z,50.03
2018-12-18T18:42:40.221Z,48.87
2018-12-18T18:45:06.174Z,49.58
2018-12-18T18:47:32.135Z,49.99
2018-12-18T18:49:58.102Z,48.85
2018-12-18T18:52:24.088Z,49.75
2018-12-18T18:54:50.228Z,49.42
2018-12-18T18:57:16.233Z,49.43
2018-12-18T18:59:42.242Z,49.26
2018-12-18T19:02:08.206Z,50.08
2018-12-18T19:04:34.870Z,49.28
2018-12-18T19:07:00.979Z,49.40
2018-12-18T19:09:27.015Z,49.99
2018-12-18T19:11:52.972Z,49.53
2018-12-18T19:14:18.959Z,49.69
2018-12-18T19:16:44.987Z,49.56
2018-12-18T19:19:11.227Z,49.17
2018-12-18T19:21:37.263Z,50.29
2018-12-18T19:24:03.252Z,50.36
2018-12-18T19:26:29.230Z,49.40
2018-12-18T19:28:55.318Z,50.25
2018-12-18T19:31:21.417Z,50.10
2018-12-18T19:33:47.514Z,49.57
2018-12-18T19:36:13.662Z,49.59
2018-12-18T19:38:39.699Z,49.65
2018-12-18T19:41:05.871Z,49.68
2018-12-18T19:43:31.940Z,49.94
2018-12-18T19:45:58.124Z,49.95
2018-12-18T19:48:24.106Z,49.31
2018-12-18T19:50:50.164Z,49.65
2018-12-18T19:53:16.673Z,49.41
2018-12-18T19:55:42.772Z,49.08
2018-12-18T19:58:08.772Z,48.64
2018-12-18T20:00:34.769Z,49.11
2018-12-18T20:03:00.745Z,48.93
2018-12-18T20:05:26.724Z,49.21
2018-12-18T20:07:52.722Z,48.99
2018-12-18T20:10:18.733Z,49.24
2018-12-18T20:12:44.709Z,49.40
2018-12-18T20:15:10.680Z,49.66
2018-12-18T20:17:36.658Z,49.56
2018-12-18T20:20:02.770Z,50.12
2018-12-18T20:22:28.812Z,49.89
2018-12-18T20:24:54.922Z,49.60
2018-12-18T20:27:20.948Z,50.06
2018-12-18T20:29:46.923Z,49.67
2018-12-18T20:32:12.924Z,49.39
2018-12-18T20:34:39.037Z,49.30
2018-12-18T20:37:05.021Z,49.32
2018-12-18T20:39:31.126Z,49.85
2018-12-18T20:41:57.110Z,50.16
2018-12-18T20:44:23.129Z,49.26
2018-12-18T20:46:49.158Z,49.75
2018-12-18T20:49:15.210Z,49.72
2018-12-18T20:51:41.297Z,49.46
2018-12-18T20:54:07.379Z,49.64
2018-12-18T20:56:34.387Z,49.98
2018-12-18T20:59:00.593Z,50.09
2018-12-18T21:01:26.585Z,49.78
2018-12-18T21:03:52.567Z,49.95
2018-12-18T21:06:18.513Z,49.76
2018-12-18T21:08:44.591Z,50.08
2018-12-18T21:11:10.608Z,49.83
2018-12-18T21:13:36.555Z,49.45
2018-12-18T21:16:03.276Z,50.12
2018-12-18T21:18:29.395Z,49.89
2018-12-18T21:20:55.466Z,49.28
2018-12-18T21:23:21.451Z,49.64
2018-12-18T21:25:47.417Z,49.81
2018-12-18T21:28:13.488Z,49.33
2018-12-18T21:30:39.538Z,49.49
2018-12-18T21:33:05.595Z,48.78
2018-12-18T21:35:31.567Z,49.89
2018-12-18T21:37:57.519Z,49.38
2018-12-18T21:40:23.533Z,49.12
2018-12-18T21:42:49.530Z,49.54
2018-12-18T21:45:15.505Z,49.66
2018-12-18T21:47:41.603Z,49.80
2018-12-18T21:50:07.648Z,50.00
2018-12-18T21:52:33.614Z,49.34
2018-12-18T21:54:59.605Z,49.80
2018-12-18T21:57:25.763Z,50.20
2018-12-18T21:59:51.770Z,48.93
2018-12-18T22:02:17.880Z,50.27
2018-12-18T22:04:43.852Z,49.89
2018-12-18T22:07:09.855Z,50.25
2018-12-18T22:09:35.842Z,49.37
2018-12-18T22:12:01.913Z,49.67
2018-12-18T22:14:27.948Z,49.18
2018-12-18T22:16:53.929Z,49.20
2018-12-18T22:19:19.881Z,49.20
2018-12-18T22:21:46.652Z,49.46
2018-12-18T22:24:12.637Z,49.21
2018-12-18T22:26:38.591Z,49.31
2018-12-18T22:29:04.572Z,48.60
2018-12-18T22:31:30.545Z,48.91
2018-12-18T22:33:56.524Z,48.49
2018-12-18T22:36:22.711Z,49.01
2018-12-18T22:38:48.682Z,48.79
2018-12-18T22:41:14.762Z,49.05
2018-12-18T22:43:40.722Z,48.44
2018-12-18T22:46:06.712Z,48.59
2018-12-18T22:48:32.832Z,49.10
2018-12-18T22:50:58.778Z,48.57
2018-12-18T22:53:25.184Z,49.24
2018-12-18T22:55:51.138Z,48.57
2018-12-18T22:58:17.173Z,48.74
2018-12-18T23:00:43.265Z,49.18
2018-12-18T23:03:09.242Z,48.73
2018-12-18T23:05:35.483Z,49.47
2018-12-18T23:08:01.442Z,48.46
2018-12-18T23:10:27.397Z,49.02
2018-12-18T23:12:53.462Z,48.68
2018-12-18T23:15:19.416Z,48.57
2018-12-18T23:17:45.418Z,49.34
2018-12-18T23:20:11.387Z,49.04
2018-12-18T23:22:37.468Z,48.92
2018-12-18T23:25:03.424Z,48.56
2018-12-18T23:27:29.394Z,48.68
2018-12-18T23:29:55.352Z,48.64
2018-12-18T23:32:21.307Z,48.00
2018-12-18T23:34:47.313Z,48.88
2018-12-18T23:37:13.283Z,49.00
2018-12-18T23:39:39.371Z,49.18
2018-12-18T23:42:05.321Z,48.30
2018-12-18T23:44:31.377Z,49.32
2018-12-18T23:46:57.474Z,49.14
2018-12-18T23:49:23.456Z,49.09
2018-12-18T23:51:49.429Z,48.50
2018-12-18T23:54:15.405Z,48.64
2018-12-18T23:56:41.389Z,48.02
2018-12-18T23:59:07.351Z,48.45
